createdAt,value
2023-04-28T00:00:55.594Z,0.95
2023-04-28T00:01:55.591Z,0.72
2023-04-28T00:02:55.680Z,0.84
2023-04-28T00:03:55.866Z,1.03
2023-04-28T00:04:55.724Z,0.77
2023-04-28T00:05:55.751Z,0.93
2023-04-28T00:06:55.661Z,0.69
2023-04-28T00:07:55.662Z,0.67
2023-04-28T00:08:55.698Z,0.81
2023-04-28T00:09:55.706Z,1.02
2023-04-28T00:10:55.760Z,0.74
2023-04-28T00:11:55.804Z,0.69
2023-04-28T00:12:55.844Z,0.98
2023-04-28T00:13:55.881Z,1.09
2023-04-28T00:14:55.920Z,0.87
2023-04-28T00:15:55.997Z,0.91
2023-04-28T00:16:56.123Z,0.89
2023-04-28T00:17:56.150Z,0.93
2023-04-28T00:18:56.092Z,0.96
2023-04-28T00:19:56.137Z,0.94
2023-04-28T00:20:56.209Z,0.71
2023-04-28T00:21:56.250Z,1.21
2023-04-28T00:22:56.283Z,0.87
2023-04-28T00:23:56.341Z,0.63
2023-04-28T00:24:56.372Z,0.98
2023-04-28T00:25:56.431Z,0.75
2023-04-28T00:26:56.480Z,0.95
2023-04-28T00:27:56.518Z,0.97
2023-04-28T00:28:56.553Z,0.92
2023-04-28T00:29:56.592Z,0.95
2023-04-28T00:30:56.653Z,0.64
2023-04-28T00:31:56.713Z,0.64
2023-04-28T00:32:56.788Z,0.87
2023-04-28T00:33:56.803Z,0.94
2023-04-28T00:34:56.856Z,0.84
2023-04-28T00:35:56.883Z,0.99
2023-04-28T00:36:56.930Z,0.77
2023-04-28T00:37:56.971Z,0.63
2023-04-28T00:38:57.032Z,0.77
2023-04-28T00:39:57.075Z,1.15
2023-04-28T00:40:57.119Z,0.81
2023-04-28T00:41:57.173Z,0.86
2023-04-28T00:42:57.207Z,0.90
2023-04-28T00:43:57.245Z,0.70
2023-04-28T00:44:57.291Z,0.89
2023-04-28T00:45:57.378Z,0.67
2023-04-28T00:46:57.398Z,0.70
2023-04-28T00:47:57.455Z,0.73
2023-04-28T00:48:57.511Z,0.72
2023-04-28T00:49:57.535Z,1.05
2023-04-28T00:50:57.590Z,0.93
2023-04-28T00:51:57.639Z,1.05
2023-04-28T00:52:57.697Z,0.90
2023-04-28T00:53:57.744Z,0.88
2023-04-28T00:54:57.779Z,0.82
2023-04-28T00:55:57.838Z,0.93
2023-04-28T00:56:57.883Z,0.86
2023-04-28T00:57:57.939Z,0.69
2023-04-28T00:58:57.981Z,0.72
2023-04-28T00:59:58.021Z,0.87
2023-04-28T01:00:58.141Z,0.64
2023-04-28T01:01:58.134Z,0.76
2023-04-28T01:02:58.465Z,0.89
2023-04-28T01:03:58.504Z,0.63
2023-04-28T01:04:58.277Z,0.91
2023-04-28T01:05:58.310Z,0.82
2023-04-28T01:06:58.385Z,0.83
2023-04-28T01:07:58.419Z,0.98
2023-04-28T01:08:58.489Z,0.92
2023-04-28T01:09:58.514Z,1.11
2023-04-28T01:10:58.557Z,0.65
2023-04-28T01:11:58.625Z,0.65
2023-04-28T01:12:58.661Z,0.91
2023-04-28T01:13:58.691Z,0.81
2023-04-28T01:14:58.739Z,0.81
2023-04-28T01:15:58.803Z,0.83
2023-04-28T01:16:58.992Z,0.98
2023-04-28T01:17:58.911Z,0.66
2023-04-28T01:18:58.927Z,1.15
2023-04-28T01:19:58.983Z,0.88
2023-04-28T01:20:59.023Z,0.94
2023-04-28T01:21:59.080Z,1.07
2023-04-28T01:22:59.125Z,0.74
2023-04-28T01:23:59.195Z,0.93
2023-04-28T01:24:59.231Z,0.91
2023-04-28T01:25:59.275Z,0.73
2023-04-28T01:26:59.363Z,0.75
2023-04-28T01:27:59.375Z,0.77
2023-04-28T01:28:59.421Z,0.88
2023-04-28T01:29:59.473Z,0.81
2023-04-28T01:30:59.528Z,0.83
2023-04-28T01:31:59.708Z,0.65
2023-04-28T01:32:59.663Z,0.65
2023-04-28T01:33:59.672Z,0.72
2023-04-28T01:34:59.690Z,0.82
2023-04-28T01:35:59.702Z,0.57
2023-04-28T01:36:59.728Z,0.68
2023-04-28T01:37:59.712Z,0.76
2023-04-28T01:38:59.730Z,0.92
2023-04-28T01:39:59.735Z,0.58
2023-04-28T01:40:59.781Z,0.75
2023-04-28T01:41:59.768Z,0.89
2023-04-28T01:42:59.780Z,0.64
2023-04-28T01:43:59.785Z,1.57
2023-04-28T01:44:59.802Z,0.75
2023-04-28T01:45:59.882Z,0.82
2023-04-28T01:46:59.821Z,0.43
2023-04-28T01:47:59.848Z,0.89
2023-04-28T01:48:59.835Z,0.80
2023-04-28T01:49:59.853Z,1.02
2023-04-28T01:50:59.881Z,0.70
2023-04-28T01:51:59.924Z,0.69
2023-04-28T01:52:59.966Z,0.67
2023-04-28T01:54:00.025Z,0.96
2023-04-28T01:55:00.071Z,0.77
2023-04-28T01:56:00.128Z,0.84
2023-04-28T01:57:00.166Z,0.93
2023-04-28T01:58:00.209Z,0.49
2023-04-28T01:59:00.269Z,0.56
2023-04-28T02:00:00.315Z,0.65
2023-04-28T02:01:00.355Z,0.78
2023-04-28T02:02:00.461Z,0.72
2023-04-28T02:03:00.489Z,0.68
2023-04-28T02:04:00.607Z,0.77
2023-04-28T02:05:00.582Z,0.84
2023-04-28T02:06:00.603Z,0.85
2023-04-28T02:07:00.668Z,0.57
2023-04-28T02:08:00.703Z,0.88
2023-04-28T02:09:00.765Z,0.78
2023-04-28T02:10:00.811Z,1.12
2023-04-28T02:11:00.854Z,0.72
2023-04-28T02:12:00.908Z,0.64
2023-04-28T02:13:00.960Z,0.68
2023-04-28T02:14:01.017Z,0.60
2023-04-28T02:15:01.110Z,0.57
2023-04-28T02:16:01.138Z,0.72
2023-04-28T02:17:01.175Z,0.66
2023-04-28T02:18:01.266Z,0.75
2023-04-28T02:19:01.282Z,0.80
2023-04-28T02:20:01.330Z,0.73
2023-04-28T02:21:01.379Z,0.87
2023-04-28T02:22:01.455Z,0.87
2023-04-28T02:23:01.487Z,0.72
2023-04-28T02:24:01.534Z,0.74
2023-04-28T02:25:01.628Z,0.63
2023-04-28T02:26:01.649Z,0.81
2023-04-28T02:27:01.718Z,0.78
2023-04-28T02:28:01.767Z,0.82
2023-04-28T02:29:01.824Z,0.73
2023-04-28T02:30:01.893Z,0.82
2023-04-28T02:31:01.978Z,1.14
2023-04-28T02:32:01.996Z,1.03
2023-04-28T02:33:02.099Z,0.87
2023-04-28T02:34:02.105Z,1.00
2023-04-28T02:35:02.176Z,0.82
2023-04-28T02:36:02.174Z,0.61
2023-04-28T02:37:02.204Z,0.84
2023-04-28T02:38:02.200Z,0.84
2023-04-28T02:39:02.192Z,0.67
2023-04-28T02:40:02.214Z,0.79
2023-04-28T02:41:02.220Z,0.88
2023-04-28T02:42:02.234Z,1.07
2023-04-28T02:43:02.228Z,0.63
2023-04-28T02:44:02.251Z,0.74
2023-04-28T02:45:02.275Z,0.81
2023-04-28T02:46:02.267Z,0.86
2023-04-28T02:47:02.393Z,0.72
2023-04-28T02:48:02.374Z,1.18
2023-04-28T02:49:02.341Z,0.63
2023-04-28T02:50:02.382Z,0.55
2023-04-28T02:51:02.439Z,0.51
2023-04-28T02:52:02.500Z,0.81
2023-04-28T02:53:02.551Z,0.70
2023-04-28T02:54:02.620Z,1.07
2023-04-28T02:55:02.661Z,0.91
2023-04-28T02:56:02.720Z,0.83
2023-04-28T02:57:02.802Z,0.83
2023-04-28T02:58:02.878Z,0.91
2023-04-28T02:59:02.900Z,0.76
2023-04-28T03:00:02.943Z,0.81
2023-04-28T03:01:03.052Z,0.80
2023-04-28T03:02:03.056Z,0.59
2023-04-28T03:03:03.243Z,0.83
2023-04-28T03:04:03.373Z,0.72
2023-04-28T03:05:03.364Z,0.52
2023-04-28T03:06:03.301Z,0.64
2023-04-28T03:07:03.356Z,0.98
2023-04-28T03:08:03.355Z,0.87
2023-04-28T03:09:03.359Z,0.77
2023-04-28T03:10:03.371Z,0.91
2023-04-28T03:11:03.395Z,0.93
2023-04-28T03:12:03.404Z,1.05
2023-04-28T03:13:03.431Z,1.06
2023-04-28T03:14:03.429Z,0.80
2023-04-28T03:15:03.436Z,1.02
2023-04-28T03:16:03.487Z,0.77
2023-04-28T03:17:03.462Z,0.88
2023-04-28T03:18:03.633Z,0.69
2023-04-28T03:19:03.673Z,0.79
2023-04-28T03:20:03.659Z,1.14
2023-04-28T03:21:03.747Z,0.77
2023-04-28T03:22:03.757Z,0.81
2023-04-28T03:23:03.761Z,1.21
2023-04-28T03:24:05.537Z,0.57
2023-04-28T03:25:03.772Z,1.21
2023-04-28T03:26:03.794Z,1.02
2023-04-28T03:27:03.844Z,1.08
2023-04-28T03:28:03.836Z,1.59
2023-04-28T03:29:03.854Z,1.78
2023-04-28T03:30:03.918Z,1.18
2023-04-28T03:31:04.015Z,1.40
2023-04-28T03:32:04.138Z,1.63
2023-04-28T03:33:04.222Z,1.88
2023-04-28T03:34:04.247Z,1.28
2023-04-28T03:35:04.320Z,1.42
2023-04-28T03:36:04.418Z,2.49
2023-04-28T03:37:04.494Z,1.92
2023-04-28T03:38:04.555Z,1.66
2023-04-28T03:39:04.633Z,1.62
2023-04-28T03:40:04.698Z,1.92
2023-04-28T03:41:04.773Z,1.85
2023-04-28T03:42:04.813Z,1.86
2023-04-28T03:43:05.080Z,1.63
2023-04-28T03:44:04.891Z,1.53
2023-04-28T03:45:04.917Z,1.36
2023-04-28T03:46:05.053Z,1.41
2023-04-28T03:47:04.997Z,1.39
2023-04-28T03:48:05.040Z,1.45
2023-04-28T03:49:05.070Z,1.44
2023-04-28T03:50:05.088Z,1.55
2023-04-28T03:51:05.103Z,1.42
2023-04-28T03:52:05.111Z,1.90
2023-04-28T03:53:05.125Z,1.29
2023-04-28T03:54:05.188Z,1.36
2023-04-28T03:55:05.185Z,1.39
2023-04-28T03:56:05.213Z,1.58
2023-04-28T03:57:05.250Z,1.45
2023-04-28T03:58:05.246Z,1.27
2023-04-28T03:59:05.361Z,1.55
2023-04-28T04:00:05.482Z,1.13
2023-04-28T04:01:05.614Z,1.28
2023-04-28T04:02:05.724Z,1.10
2023-04-28T04:03:05.875Z,1.53
2023-04-28T04:04:06.017Z,1.71
2023-04-28T04:05:05.988Z,1.49
2023-04-28T04:06:05.946Z,1.15
2023-04-28T04:07:06.053Z,1.34
2023-04-28T04:08:06.179Z,1.23
2023-04-28T04:09:06.307Z,1.12
2023-04-28T04:10:06.422Z,1.18
2023-04-28T04:11:06.542Z,1.05
2023-04-28T04:12:06.662Z,0.90
2023-04-28T04:13:06.795Z,0.84
2023-04-28T04:14:06.819Z,1.24
2023-04-28T04:15:06.847Z,1.13
2023-04-28T04:16:06.929Z,1.49
2023-04-28T04:17:06.922Z,1.17
2023-04-28T04:18:06.984Z,1.47
2023-04-28T04:19:07.020Z,1.32
2023-04-28T04:20:07.072Z,1.11
2023-04-28T04:21:07.093Z,1.14
2023-04-28T04:22:07.132Z,1.17
2023-04-28T04:23:07.166Z,1.19
2023-04-28T04:24:07.245Z,1.23
2023-04-28T04:25:07.275Z,1.19
2023-04-28T04:26:07.305Z,1.28
2023-04-28T04:27:07.357Z,1.43
2023-04-28T04:28:07.375Z,1.12
2023-04-28T04:29:07.412Z,1.22
2023-04-28T04:30:07.484Z,1.38
2023-04-28T04:31:07.569Z,1.20
2023-04-28T04:32:07.545Z,1.29
2023-04-28T04:33:07.620Z,1.27
2023-04-28T04:34:07.636Z,1.03
2023-04-28T04:35:07.666Z,1.46
2023-04-28T04:36:07.735Z,1.10
2023-04-28T04:37:07.744Z,1.56
2023-04-28T04:38:07.805Z,1.45
2023-04-28T04:39:07.847Z,1.48
2023-04-28T04:40:07.925Z,1.42
2023-04-28T04:41:07.937Z,1.44
2023-04-28T04:42:23.128Z,1.56
2023-04-28T04:43:08.987Z,1.48
2023-04-28T04:44:07.993Z,1.52
2023-04-28T04:45:08.001Z,1.39
2023-04-28T04:46:08.086Z,1.30
2023-04-28T04:47:08.029Z,1.55
2023-04-28T04:48:08.115Z,1.30
2023-04-28T04:49:08.066Z,1.39
2023-04-28T04:50:08.121Z,1.25
2023-04-28T04:51:08.104Z,1.59
2023-04-28T04:52:08.111Z,1.12
2023-04-28T04:53:12.186Z,1.88
2023-04-28T04:54:09.151Z,1.33
2023-04-28T04:55:08.164Z,1.49
2023-04-28T04:56:08.205Z,1.05
2023-04-28T04:57:08.202Z,1.49
2023-04-28T04:58:08.227Z,1.57
2023-04-28T04:59:08.222Z,1.40
2023-04-28T05:00:08.250Z,1.25
2023-04-28T05:01:08.277Z,2.19
2023-04-28T05:02:08.432Z,1.71
2023-04-28T05:03:08.449Z,1.72
2023-04-28T05:04:08.512Z,2.06
2023-04-28T05:05:20.710Z,1.69
2023-04-28T05:06:09.366Z,1.79
2023-04-28T05:07:08.402Z,2.42
2023-04-28T05:08:08.411Z,2.19
2023-04-28T05:09:08.424Z,1.85
2023-04-28T05:10:08.441Z,1.72
2023-04-28T05:11:08.481Z,1.28
2023-04-28T05:12:08.495Z,1.52
2023-04-28T05:13:08.518Z,1.97
2023-04-28T05:14:08.550Z,1.84
2023-04-28T05:15:08.564Z,1.81
2023-04-28T05:16:08.599Z,1.95
2023-04-28T05:17:08.596Z,1.87
2023-04-28T05:18:08.680Z,2.27
2023-04-28T05:19:08.624Z,2.60
2023-04-28T05:20:08.688Z,2.12
2023-04-28T05:21:08.734Z,1.93
2023-04-28T05:22:08.803Z,2.17
2023-04-28T05:23:08.860Z,1.70
2023-04-28T05:24:08.910Z,1.83
2023-04-28T05:25:08.974Z,1.79
2023-04-28T05:26:09.041Z,2.11
2023-04-28T05:27:09.116Z,1.53
2023-04-28T05:28:09.174Z,2.44
2023-04-28T05:29:09.239Z,1.83
2023-04-28T05:30:09.303Z,1.54
2023-04-28T05:31:09.372Z,1.92
2023-04-28T05:32:10.027Z,1.86
2023-04-28T05:33:09.547Z,1.61
2023-04-28T05:34:09.585Z,1.69
2023-04-28T05:35:09.642Z,1.91
2023-04-28T05:36:09.786Z,2.10
2023-04-28T05:37:09.900Z,1.71
2023-04-28T05:38:09.845Z,1.74
2023-04-28T05:39:10.051Z,1.62
2023-04-28T05:40:09.923Z,2.53
2023-04-28T05:41:09.958Z,2.54
2023-04-28T05:42:09.985Z,1.69
2023-04-28T05:43:10.039Z,2.16
2023-04-28T05:44:09.973Z,2.40
2023-04-28T05:45:10.010Z,2.07
2023-04-28T05:46:28.496Z,1.94
2023-04-28T05:47:11.296Z,2.22
2023-04-28T05:48:10.359Z,2.10
2023-04-28T05:49:10.054Z,2.68
2023-04-28T05:50:10.084Z,3.20
2023-04-28T05:51:10.094Z,3.06
2023-04-28T05:52:10.343Z,3.24
2023-04-28T05:53:10.184Z,2.75
2023-04-28T05:54:10.161Z,3.00
2023-04-28T05:55:10.192Z,3.12
2023-04-28T05:56:10.190Z,3.84
2023-04-28T05:57:10.227Z,3.32
2023-04-28T05:58:10.241Z,3.36
2023-04-28T05:59:10.251Z,3.24
2023-04-28T06:00:10.294Z,3.62
2023-04-28T06:01:10.367Z,3.25
2023-04-28T06:02:10.378Z,3.12
2023-04-28T06:03:10.515Z,3.32
2023-04-28T06:04:10.624Z,2.88
2023-04-28T06:05:10.673Z,3.52
2023-04-28T06:06:10.537Z,3.00
2023-04-28T06:07:10.468Z,3.05
2023-04-28T06:08:10.514Z,3.25
2023-04-28T06:09:10.532Z,3.10
2023-04-28T06:10:10.596Z,2.51
2023-04-28T06:11:10.599Z,2.88
2023-04-28T06:12:10.643Z,3.26
2023-04-28T06:13:11.750Z,2.64
2023-04-28T06:14:10.793Z,3.13
2023-04-28T06:15:10.850Z,3.18
2023-04-28T06:16:10.921Z,3.18
2023-04-28T06:17:10.864Z,3.66
2023-04-28T06:18:10.954Z,3.11
2023-04-28T06:19:10.909Z,3.82
2023-04-28T06:20:10.949Z,3.02
2023-04-28T06:21:10.966Z,3.23
2023-04-28T06:22:11.005Z,3.63
2023-04-28T06:23:11.039Z,3.78
2023-04-28T06:24:11.078Z,3.86
2023-04-28T06:25:11.087Z,3.30
2023-04-28T06:26:11.138Z,3.38
2023-04-28T06:27:11.163Z,3.84
2023-04-28T06:28:11.186Z,3.64
2023-04-28T06:29:11.228Z,3.42
2023-04-28T06:30:11.261Z,2.89
2023-04-28T06:31:11.325Z,3.70
2023-04-28T06:32:11.344Z,3.75
2023-04-28T06:33:11.375Z,3.10
2023-04-28T06:34:11.432Z,3.51
2023-04-28T06:35:11.433Z,4.16
2023-04-28T06:36:11.491Z,4.43
2023-04-28T06:37:11.509Z,4.07
2023-04-28T06:38:11.520Z,4.32
2023-04-28T06:39:11.552Z,4.20
2023-04-28T06:40:11.553Z,3.62
2023-04-28T06:41:11.585Z,3.60
2023-04-28T06:42:11.601Z,3.24
2023-04-28T06:43:11.619Z,2.60
2023-04-28T06:44:11.634Z,2.65
2023-04-28T06:45:11.658Z,3.40
2023-04-28T06:46:11.707Z,3.48
2023-04-28T06:47:11.703Z,3.50
2023-04-28T06:48:11.739Z,4.08
2023-04-28T06:49:11.766Z,4.53
2023-04-28T06:50:11.821Z,3.55
2023-04-28T06:51:11.785Z,3.42
2023-04-28T06:52:11.830Z,3.90
2023-04-28T06:53:11.852Z,3.58
2023-04-28T06:54:11.876Z,3.65
2023-04-28T06:55:11.880Z,4.46
2023-04-28T06:56:12.034Z,4.19
2023-04-28T06:57:11.921Z,4.12
2023-04-28T06:58:11.955Z,3.74
2023-04-28T06:59:12.041Z,3.74
2023-04-28T07:00:12.034Z,4.07
2023-04-28T07:01:12.101Z,3.95
2023-04-28T07:02:12.153Z,4.31
2023-04-28T07:03:12.192Z,3.66
2023-04-28T07:04:12.226Z,4.29
2023-04-28T07:05:14.075Z,3.93
2023-04-28T07:06:12.187Z,4.00
2023-04-28T07:07:12.251Z,3.33
2023-04-28T07:08:12.315Z,4.39
2023-04-28T07:09:12.270Z,4.20
2023-04-28T07:10:12.316Z,4.47
2023-04-28T07:11:12.348Z,4.02
2023-04-28T07:12:12.362Z,4.84
2023-04-28T07:13:12.387Z,4.06
2023-04-28T07:14:12.430Z,3.72
2023-04-28T07:15:12.902Z,3.62
2023-04-28T07:16:12.539Z,4.32
2023-04-28T07:17:12.539Z,3.92
2023-04-28T07:18:12.617Z,4.18
2023-04-28T07:19:12.704Z,4.11
2023-04-28T07:20:12.627Z,3.82
2023-04-28T07:21:12.673Z,4.54
2023-04-28T07:22:12.727Z,3.77
2023-04-28T07:23:12.729Z,4.13
2023-04-28T07:24:12.742Z,3.99
2023-04-28T07:25:12.784Z,3.99
2023-04-28T07:26:14.745Z,3.47
2023-04-28T07:27:12.831Z,3.26
2023-04-28T07:28:12.827Z,3.24
2023-04-28T07:29:12.890Z,2.82
2023-04-28T07:30:26.667Z,3.33
2023-04-28T07:31:13.923Z,3.14
2023-04-28T07:32:13.065Z,3.72
2023-04-28T07:33:13.002Z,3.40
2023-04-28T07:34:12.991Z,3.15
2023-04-28T07:35:13.035Z,3.20
2023-04-28T07:36:13.052Z,3.77
2023-04-28T07:37:13.073Z,3.45
2023-04-28T07:38:13.270Z,3.15
2023-04-28T07:39:13.133Z,2.95
2023-04-28T07:40:13.172Z,3.17
2023-04-28T07:41:13.190Z,2.95
2023-04-28T07:42:13.200Z,2.41
2023-04-28T07:43:13.230Z,2.53
2023-04-28T07:44:13.321Z,2.98
2023-04-28T07:45:13.329Z,2.75
2023-04-28T07:46:13.427Z,2.31
2023-04-28T07:47:13.365Z,2.99
2023-04-28T07:48:13.390Z,2.35
2023-04-28T07:49:13.418Z,2.48
2023-04-28T07:50:13.540Z,2.65
2023-04-28T07:51:13.482Z,3.28
2023-04-28T07:52:13.490Z,2.51
2023-04-28T07:53:13.512Z,3.13
2023-04-28T07:54:13.551Z,2.13
2023-04-28T07:55:13.558Z,2.18
2023-04-28T07:56:13.593Z,2.28
2023-04-28T07:57:13.616Z,2.88
2023-04-28T07:58:13.625Z,2.50
2023-04-28T07:59:13.691Z,2.74
2023-04-28T08:00:13.697Z,2.10
2023-04-28T08:01:13.731Z,2.81
2023-04-28T08:02:13.776Z,2.87
2023-04-28T08:03:14.016Z,2.24
2023-04-28T08:04:14.270Z,2.39
2023-04-28T08:05:14.031Z,2.56
2023-04-28T08:06:13.980Z,2.36
2023-04-28T08:07:14.011Z,2.15
2023-04-28T08:08:14.017Z,2.27
2023-04-28T08:09:14.052Z,2.41
2023-04-28T08:10:14.085Z,2.10
2023-04-28T08:11:14.092Z,2.14
2023-04-28T08:12:14.150Z,2.11
2023-04-28T08:13:14.156Z,2.15
2023-04-28T08:14:14.368Z,2.06
2023-04-28T08:15:14.442Z,2.53
2023-04-28T08:16:14.292Z,2.33
2023-04-28T08:17:14.243Z,1.71
2023-04-28T08:18:14.390Z,1.68
2023-04-28T08:19:14.328Z,2.22
2023-04-28T08:20:14.303Z,1.77
2023-04-28T08:21:14.308Z,1.73
2023-04-28T08:22:14.345Z,1.99
2023-04-28T08:23:14.455Z,1.59
2023-04-28T08:24:14.553Z,1.59
2023-04-28T08:25:14.491Z,1.50
2023-04-28T08:26:14.519Z,2.00
2023-04-28T08:27:14.550Z,1.58
2023-04-28T08:28:14.557Z,1.45
2023-04-28T08:29:14.566Z,1.66
2023-04-28T08:30:14.598Z,1.75
2023-04-28T08:31:14.722Z,1.63
2023-04-28T08:32:14.626Z,1.78
2023-04-28T08:33:14.675Z,1.59
2023-04-28T08:34:16.446Z,1.41
2023-04-28T08:35:14.670Z,2.41
2023-04-28T08:36:14.703Z,1.69
2023-04-28T08:37:14.721Z,1.35
2023-04-28T08:38:14.739Z,1.66
2023-04-28T08:39:14.753Z,1.81
2023-04-28T08:40:14.801Z,1.90
2023-04-28T08:41:14.784Z,1.27
2023-04-28T08:42:14.825Z,1.83
2023-04-28T08:43:14.819Z,2.16
2023-04-28T08:44:15.084Z,1.56
2023-04-28T08:45:14.856Z,1.53
2023-04-28T08:46:14.896Z,1.65
2023-04-28T08:47:14.954Z,1.38
2023-04-28T08:48:14.893Z,1.50
2023-04-28T08:49:14.931Z,1.36
2023-04-28T08:50:15.067Z,1.37
2023-04-28T08:51:15.143Z,1.53
2023-04-28T08:52:15.183Z,1.36
2023-04-28T08:53:15.210Z,1.64
2023-04-28T08:54:29.197Z,1.56
2023-04-28T08:55:16.283Z,1.53
2023-04-28T08:56:15.346Z,1.19
2023-04-28T08:57:15.515Z,1.02
2023-04-28T08:58:15.321Z,1.48
2023-04-28T08:59:15.380Z,1.78
2023-04-28T09:00:15.399Z,1.39
2023-04-28T09:01:15.459Z,1.58
2023-04-28T09:02:15.442Z,1.41
2023-04-28T09:03:15.599Z,1.01
2023-04-28T09:04:15.697Z,1.06
2023-04-28T09:05:15.894Z,1.29
2023-04-28T09:06:15.535Z,1.33
2023-04-28T09:07:15.572Z,1.32
2023-04-28T09:08:15.579Z,1.16
2023-04-28T09:09:15.591Z,1.10
2023-04-28T09:10:15.603Z,1.41
2023-04-28T09:11:15.667Z,1.27
2023-04-28T09:12:15.664Z,1.50
2023-04-28T09:13:15.665Z,1.36
2023-04-28T09:14:15.934Z,1.23
2023-04-28T09:15:15.701Z,1.34
2023-04-28T09:16:15.750Z,1.28
2023-04-28T09:17:15.776Z,1.01
2023-04-28T09:18:15.803Z,1.39
2023-04-28T09:19:15.811Z,1.51
2023-04-28T09:20:15.843Z,1.28
2023-04-28T09:21:15.863Z,1.37
2023-04-28T09:22:26.060Z,1.02
2023-04-28T09:23:16.917Z,1.34
2023-04-28T09:24:16.091Z,1.31
2023-04-28T09:25:15.944Z,0.98
2023-04-28T09:26:15.956Z,1.35
2023-04-28T09:27:15.983Z,1.28
2023-04-28T09:28:16.024Z,1.37
2023-04-28T09:29:16.170Z,1.10
2023-04-28T09:30:16.040Z,1.55
2023-04-28T09:31:16.151Z,0.87
2023-04-28T09:32:16.164Z,1.22
2023-04-28T09:33:16.240Z,1.22
2023-04-28T09:34:16.410Z,1.08
2023-04-28T09:35:16.163Z,1.18
2023-04-28T09:36:16.173Z,1.13
2023-04-28T09:37:16.342Z,1.16
2023-04-28T09:38:16.291Z,1.46
2023-04-28T09:39:16.417Z,1.19
2023-04-28T09:40:16.305Z,0.86
2023-04-28T09:41:16.288Z,0.97
2023-04-28T09:42:16.327Z,2.00
2023-04-28T09:43:21.913Z,1.97
2023-04-28T09:44:17.738Z,2.10
2023-04-28T09:45:16.434Z,2.23
2023-04-28T09:46:16.423Z,2.81
2023-04-28T09:47:16.495Z,2.57
2023-04-28T09:48:16.575Z,2.22
2023-04-28T09:49:16.578Z,2.42
2023-04-28T09:50:16.637Z,2.62
2023-04-28T09:51:16.669Z,2.01
2023-04-28T09:52:16.691Z,2.61
2023-04-28T09:53:16.723Z,2.45
2023-04-28T09:54:16.743Z,2.57
2023-04-28T09:55:16.770Z,2.07
2023-04-28T09:56:16.812Z,2.26
2023-04-28T09:57:16.845Z,2.96
2023-04-28T09:58:16.890Z,2.88
2023-04-28T09:59:16.892Z,2.13
2023-04-28T10:00:16.939Z,2.20
2023-04-28T10:01:16.971Z,1.73
2023-04-28T10:02:36.212Z,2.35
2023-04-28T10:03:18.698Z,2.47
2023-04-28T10:04:17.188Z,2.65
2023-04-28T10:05:17.292Z,2.04
2023-04-28T10:06:17.096Z,2.20
2023-04-28T10:07:17.122Z,2.62
2023-04-28T10:08:17.130Z,2.24
2023-04-28T10:09:17.167Z,2.44
2023-04-28T10:10:17.202Z,1.80
2023-04-28T10:11:17.215Z,2.14
2023-04-28T10:12:17.241Z,2.07
2023-04-28T10:13:17.274Z,2.42
2023-04-28T10:14:17.276Z,2.04
2023-04-28T10:15:17.320Z,2.08
2023-04-28T10:16:17.388Z,1.85
2023-04-28T10:17:17.369Z,2.47
2023-04-28T10:18:17.403Z,2.26
2023-04-28T10:19:17.423Z,1.95
2023-04-28T10:20:17.458Z,2.24
2023-04-28T10:21:17.468Z,2.40
2023-04-28T10:22:17.497Z,2.61
2023-04-28T10:23:17.539Z,2.47
2023-04-28T10:24:17.542Z,2.10
2023-04-28T10:25:17.569Z,2.59
2023-04-28T10:26:17.597Z,2.50
2023-04-28T10:27:17.613Z,2.62
2023-04-28T10:28:17.677Z,2.46
2023-04-28T10:29:17.660Z,2.30
2023-04-28T10:30:26.632Z,2.74
2023-04-28T10:31:18.779Z,2.59
2023-04-28T10:32:17.752Z,2.66
2023-04-28T10:33:17.792Z,2.29
2023-04-28T10:34:17.869Z,2.07
2023-04-28T10:35:17.858Z,2.23
2023-04-28T10:36:24.105Z,1.84
2023-04-28T10:37:18.914Z,1.75
2023-04-28T10:38:17.962Z,1.90
2023-04-28T10:39:17.964Z,1.76
2023-04-28T10:40:17.982Z,2.00
2023-04-28T10:41:18.003Z,2.36
2023-04-28T10:42:18.039Z,1.77
2023-04-28T10:43:18.077Z,1.98
2023-04-28T10:44:18.093Z,2.09
2023-04-28T10:45:18.122Z,1.66
2023-04-28T10:46:18.166Z,1.85
2023-04-28T10:47:18.154Z,1.93
2023-04-28T10:48:18.194Z,1.40
2023-04-28T10:49:18.189Z,1.58
2023-04-28T10:50:21.927Z,1.70
2023-04-28T10:51:19.223Z,1.72
2023-04-28T10:52:18.243Z,1.63
2023-04-28T10:53:18.272Z,2.00
2023-04-28T10:54:18.400Z,1.72
2023-04-28T10:55:22.023Z,1.78
2023-04-28T10:56:18.342Z,1.49
2023-04-28T10:57:18.370Z,1.56
2023-04-28T10:58:18.387Z,1.89
2023-04-28T10:59:18.526Z,1.59
2023-04-28T11:00:18.416Z,1.42
2023-04-28T11:01:18.459Z,1.45
2023-04-28T11:02:18.619Z,1.53
2023-04-28T11:03:18.588Z,1.68
2023-04-28T11:04:18.586Z,1.28
2023-04-28T11:05:18.600Z,1.49
2023-04-28T11:06:18.527Z,1.19
2023-04-28T11:07:18.565Z,1.45
2023-04-28T11:08:18.575Z,1.49
2023-04-28T11:09:18.612Z,1.44
2023-04-28T11:10:18.708Z,1.09
2023-04-28T11:11:18.640Z,1.60
2023-04-28T11:12:18.673Z,1.47
2023-04-28T11:13:18.687Z,1.47
2023-04-28T11:14:18.707Z,1.57
2023-04-28T11:15:18.720Z,1.28
2023-04-28T11:16:18.787Z,0.92
2023-04-28T11:17:18.788Z,1.95
2023-04-28T11:18:18.807Z,1.12
2023-04-28T11:19:18.829Z,1.27
2023-04-28T11:20:18.829Z,1.12
2023-04-28T11:21:18.857Z,1.45
2023-04-28T11:22:18.913Z,1.43
2023-04-28T11:23:18.926Z,1.45
2023-04-28T11:24:18.943Z,1.35
2023-04-28T11:25:18.971Z,1.07
2023-04-28T11:26:18.994Z,0.98
2023-04-28T11:27:19.005Z,0.99
2023-04-28T11:28:19.083Z,1.09
2023-04-28T11:29:19.099Z,1.16
2023-04-28T11:30:19.125Z,1.42
2023-04-28T11:31:19.259Z,1.07
2023-04-28T11:32:19.178Z,0.94
2023-04-28T11:33:19.221Z,1.24
2023-04-28T11:34:19.234Z,1.23
2023-04-28T11:35:19.226Z,1.13
2023-04-28T11:36:19.250Z,1.04
2023-04-28T11:37:19.460Z,1.20
2023-04-28T11:38:19.415Z,1.59
2023-04-28T11:39:19.303Z,1.19
2023-04-28T11:40:19.327Z,1.18
2023-04-28T11:41:19.346Z,1.22
2023-04-28T11:42:19.365Z,1.12
2023-04-28T11:43:19.397Z,1.37
2023-04-28T11:44:19.447Z,1.35
2023-04-28T11:45:19.443Z,1.31
2023-04-28T11:46:19.461Z,1.23
2023-04-28T11:47:19.476Z,1.12
2023-04-28T11:48:19.491Z,1.65
2023-04-28T11:49:19.516Z,1.07
2023-04-28T11:50:19.520Z,1.28
2023-04-28T11:51:19.571Z,1.34
2023-04-28T11:52:19.552Z,1.42
2023-04-28T11:53:19.585Z,1.08
2023-04-28T11:54:19.589Z,1.21
2023-04-28T11:55:19.613Z,1.45
2023-04-28T11:56:19.599Z,1.37
2023-04-28T11:57:19.625Z,1.55
2023-04-28T11:58:19.649Z,0.92
2023-04-28T11:59:19.668Z,1.22
2023-04-28T12:00:20.040Z,1.07
2023-04-28T12:01:19.687Z,1.36
2023-04-28T12:02:19.774Z,1.25
2023-04-28T12:03:19.834Z,1.29
2023-04-28T12:04:19.906Z,1.12
2023-04-28T12:05:19.800Z,1.00
2023-04-28T12:06:19.789Z,1.10
2023-04-28T12:07:19.798Z,0.89
2023-04-28T12:08:19.823Z,1.15
2023-04-28T12:09:19.831Z,1.10
2023-04-28T12:10:19.943Z,0.96
2023-04-28T12:11:20.734Z,1.36
2023-04-28T12:12:22.969Z,1.23
2023-04-28T12:13:20.889Z,0.85
2023-04-28T12:14:19.902Z,1.20
2023-04-28T12:15:20.795Z,1.00
2023-04-28T12:16:20.041Z,1.15
2023-04-28T12:17:19.990Z,1.17
2023-04-28T12:18:20.003Z,0.85
2023-04-28T12:19:20.167Z,1.03
2023-04-28T12:20:20.004Z,1.10
2023-04-28T12:21:20.010Z,1.22
2023-04-28T12:22:20.023Z,1.17
2023-04-28T12:23:20.050Z,1.15
2023-04-28T12:24:20.062Z,1.30
2023-04-28T12:25:20.093Z,1.07
2023-04-28T12:26:20.089Z,1.39
2023-04-28T12:27:20.099Z,1.04
2023-04-28T12:28:20.131Z,1.43
2023-04-28T12:29:20.164Z,1.36
2023-04-28T12:30:20.167Z,1.29
2023-04-28T12:31:20.244Z,1.16
2023-04-28T12:32:20.275Z,1.05
2023-04-28T12:33:20.240Z,1.22
2023-04-28T12:34:20.270Z,1.26
2023-04-28T12:35:20.274Z,1.05
2023-04-28T12:36:20.289Z,0.99
2023-04-28T12:37:20.311Z,1.14
2023-04-28T12:38:20.324Z,1.03
2023-04-28T12:39:20.351Z,1.15
2023-04-28T12:40:20.372Z,0.68
2023-04-28T12:41:20.400Z,1.09
2023-04-28T12:42:20.396Z,1.00
2023-04-28T12:43:20.431Z,1.00
2023-04-28T12:44:20.448Z,0.83
2023-04-28T12:45:20.474Z,0.70
2023-04-28T12:46:20.570Z,1.07
2023-04-28T12:47:20.557Z,0.93
2023-04-28T12:48:20.699Z,1.13
2023-04-28T12:49:20.772Z,1.11
2023-04-28T12:50:20.769Z,0.93
2023-04-28T12:51:20.822Z,1.23
2023-04-28T12:52:20.926Z,1.18
2023-04-28T12:53:21.008Z,1.18
2023-04-28T12:54:21.073Z,1.29
2023-04-28T12:55:21.134Z,0.80
2023-04-28T12:56:21.233Z,1.12
2023-04-28T12:57:21.314Z,1.01
2023-04-28T12:58:21.422Z,0.93
2023-04-28T12:59:21.498Z,0.84
2023-04-28T13:00:21.574Z,1.11
2023-04-28T13:01:21.679Z,1.37
2023-04-28T13:02:21.793Z,1.30
2023-04-28T13:03:22.067Z,1.18
2023-04-28T13:04:22.106Z,0.97
2023-04-28T13:05:21.997Z,1.20
2023-04-28T13:06:22.044Z,0.73
2023-04-28T13:07:22.134Z,1.12
2023-04-28T13:08:22.220Z,1.41
2023-04-28T13:09:22.281Z,1.02
2023-04-28T13:10:22.375Z,1.33
2023-04-28T13:11:23.217Z,0.78
2023-04-28T13:12:22.501Z,1.62
2023-04-28T13:13:22.606Z,1.02
2023-04-28T13:14:22.676Z,0.78
2023-04-28T13:15:22.742Z,1.43
2023-04-28T13:16:22.880Z,1.27
2023-04-28T13:17:22.984Z,1.18
2023-04-28T13:18:23.002Z,1.07
2023-04-28T13:19:23.052Z,0.72